createdAt,value
2019-04-03T00:01:37.871Z,100242.36
2019-04-03T00:04:07.464Z,100244.77
2019-04-03T00:06:36.978Z,100241.14
2019-04-03T00:09:08.304Z,100243.21
2019-04-03T00:11:39.755Z,100253.65
2019-04-03T00:14:12.248Z,100250.24
2019-04-03T00:16:41.452Z,100246.31
2019-04-03T00:19:13.509Z,100254.94
2019-04-03T00:21:43.039Z,100252.14
2019-04-03T00:24:12.658Z,100259.68
2019-04-03T00:26:42.053Z,100256.26
2019-04-03T00:29:11.563Z,100258.32
2019-04-03T00:31:41.276Z,100255.77
2019-04-03T00:34:10.913Z,100257.45
2019-04-03T00:36:40.491Z,100261.35
2019-04-03T00:39:12.492Z,100255.62
2019-04-03T00:41:42.274Z,100253.19
2019-04-03T00:44:12.812Z,100254.13
2019-04-03T00:46:42.496Z,100251.95
2019-04-03T00:49:14.367Z,100244.51
2019-04-03T00:51:45.941Z,100242.17
2019-04-03T00:54:17.297Z,100243.39
2019-04-03T00:56:47.869Z,100246.64
2019-04-03T00:59:17.241Z,100248.71
2019-04-03T01:01:48.680Z,100246.16
2019-04-03T01:04:19.979Z,100246.61
2019-04-03T01:06:49.437Z,100252.34
2019-04-03T01:09:21.082Z,100249.27
2019-04-03T01:11:51.624Z,100249.88
2019-04-03T01:14:23.608Z,100254.13
2019-04-03T01:16:53.415Z,100259.59
2019-04-03T01:19:24.309Z,100248.52
2019-04-03T01:21:54.003Z,100249.23
2019-04-03T01:24:25.518Z,100248.88
2019-04-03T01:26:58.418Z,100256.16
2019-04-03T01:29:27.840Z,100254.32
2019-04-03T01:31:58.801Z,100250.44
2019-04-03T01:34:31.915Z,100256.45
2019-04-03T01:37:04.241Z,100253.43
2019-04-03T01:39:35.774Z,100249.42
2019-04-03T01:42:05.386Z,100247.11
2019-04-03T01:44:35.152Z,100242.51
2019-04-03T01:47:04.679Z,100245.89
2019-04-03T01:49:34.116Z,100253.67
2019-04-03T01:52:05.486Z,100251.09
2019-04-03T01:54:36.441Z,100248.95
2019-04-03T01:57:07.087Z,100239.48
2019-04-03T01:59:37.499Z,100234.50
2019-04-03T02:02:09.124Z,100219.45
2019-04-03T02:04:38.608Z,100228.44
2019-04-03T02:07:09.277Z,100247.05
2019-04-03T02:09:39.100Z,100255.69
2019-04-03T02:12:08.584Z,100258.59
2019-04-03T02:14:37.986Z,100252.36
2019-04-03T02:17:08.641Z,100258.42
2019-04-03T02:19:39.369Z,100250.14
2019-04-03T02:22:09.018Z,100255.80
2019-04-03T02:24:38.822Z,100249.09
2019-04-03T02:27:09.672Z,100248.62
2019-04-03T02:29:41.150Z,100243.87
2019-04-03T02:32:11.845Z,100246.58
2019-04-03T02:34:41.435Z,100247.73
2019-04-03T02:37:16.510Z,100254.37
2019-04-03T02:39:44.859Z,100248.67
2019-04-03T02:42:16.410Z,100248.88
2019-04-03T02:44:48.405Z,100238.83
2019-04-03T02:47:18.346Z,100241.34
2019-04-03T02:49:51.351Z,100250.80
2019-04-03T02:52:24.065Z,100253.44
2019-04-03T02:54:53.878Z,100257.17
2019-04-03T02:57:23.389Z,100258.70
2019-04-03T02:59:58.834Z,100257.41
2019-04-03T03:02:27.146Z,100264.83
2019-04-03T03:04:57.907Z,100266.44
2019-04-03T03:07:28.154Z,100264.36
2019-04-03T03:09:58.432Z,100264.71
2019-04-03T03:12:28.845Z,100264.31
2019-04-03T03:14:59.485Z,100262.50
2019-04-03T03:17:29.193Z,100254.00
2019-04-03T03:20:05.168Z,100261.06
2019-04-03T03:22:33.051Z,100262.16
2019-04-03T03:25:03.359Z,100259.25
2019-04-03T03:27:40.897Z,100267.88
2019-04-03T03:30:29.973Z,100259.48
2019-04-03T03:32:40.997Z,100262.05
2019-04-03T03:35:16.911Z,100260.75
2019-04-03T03:37:45.217Z,100265.38
2019-04-03T03:40:17.243Z,100270.09
2019-04-03T03:42:48.724Z,100268.20
2019-04-03T03:45:21.604Z,100260.19
2019-04-03T03:47:53.298Z,100258.50
2019-04-03T03:50:26.115Z,100259.53
2019-04-03T03:52:57.785Z,100252.70
2019-04-03T03:55:27.843Z,100252.62
2019-04-03T03:58:00.214Z,100261.57
2019-04-03T04:00:31.827Z,100255.41
2019-04-03T04:03:03.254Z,100248.86
2019-04-03T04:05:32.799Z,100252.62
2019-04-03T04:08:02.295Z,100245.72
2019-04-03T04:10:36.424Z,100246.53
2019-04-03T04:13:04.940Z,100236.73
2019-04-03T04:15:34.644Z,100240.69
2019-04-03T04:18:06.221Z,100241.42
2019-04-03T04:20:38.530Z,100248.34
2019-04-03T04:23:08.464Z,100248.81
2019-04-03T04:25:43.218Z,100237.45
2019-04-03T04:28:13.330Z,100232.12
2019-04-03T04:30:46.319Z,100239.73
2019-04-03T04:33:17.781Z,100235.85
2019-04-03T04:35:47.551Z,100240.26
2019-04-03T04:38:16.937Z,100240.97
2019-04-03T04:40:46.955Z,100239.75
2019-04-03T04:43:17.499Z,100241.20
2019-04-03T04:45:48.950Z,100247.88
2019-04-03T04:48:20.599Z,100246.15
2019-04-03T04:50:50.747Z,100249.32
2019-04-03T04:53:21.336Z,100243.36
2019-04-03T04:55:51.255Z,100240.34
2019-04-03T04:58:21.760Z,100250.16
2019-04-03T05:00:53.502Z,100246.86
2019-04-03T05:03:23.511Z,100245.72
2019-04-03T05:05:52.946Z,100253.20
2019-04-03T05:08:22.558Z,100250.65
2019-04-03T05:10:52.406Z,100257.91
2019-04-03T05:13:22.938Z,100262.86
2019-04-03T05:15:54.674Z,100267.42
2019-04-03T05:18:28.517Z,100277.11
2019-04-03T05:20:57.665Z,100277.70
2019-04-03T05:23:29.740Z,100278.05
2019-04-03T05:26:01.895Z,100281.58
2019-04-03T05:28:34.064Z,100278.95
2019-04-03T05:31:03.091Z,100276.41
2019-04-03T05:33:33.993Z,100271.37
2019-04-03T05:36:03.619Z,100265.45
2019-04-03T05:38:34.101Z,100273.73
2019-04-03T05:41:03.837Z,100284.77
2019-04-03T05:43:34.535Z,100279.43
2019-04-03T05:46:05.666Z,100271.50
2019-04-03T05:48:37.193Z,100275.18
2019-04-03T05:51:07.788Z,100274.86
2019-04-03T05:53:38.101Z,100283.27
2019-04-03T05:56:07.828Z,100286.91
2019-04-03T05:58:37.431Z,100287.03
2019-04-03T06:01:07.393Z,100292.69
2019-04-03T06:03:44.288Z,100290.72
2019-04-03T06:06:11.017Z,100300.85
2019-04-03T06:08:41.440Z,100300.73
2019-04-03T06:11:11.139Z,100303.36
2019-04-03T06:13:41.537Z,100303.04
2019-04-03T06:16:10.956Z,100302.59
2019-04-03T06:18:40.841Z,100301.27
2019-04-03T06:21:11.351Z,100301.27
2019-04-03T06:23:40.965Z,100300.81
2019-04-03T06:26:11.107Z,100309.81
2019-04-03T06:28:43.292Z,100309.00
2019-04-03T06:31:14.857Z,100306.50
2019-04-03T06:33:45.412Z,100305.77
2019-04-03T06:36:17.212Z,100310.28
2019-04-03T06:38:46.958Z,100304.62
2019-04-03T06:41:16.791Z,100310.20
2019-04-03T06:43:49.116Z,100317.28
2019-04-03T06:46:17.419Z,100311.07
2019-04-03T06:48:47.148Z,100314.63
2019-04-03T06:51:17.846Z,100306.36
2019-04-03T06:53:50.664Z,100310.42
2019-04-03T06:56:21.934Z,100313.56
2019-04-03T06:58:52.882Z,100317.71
2019-04-03T07:01:22.377Z,100326.48
2019-04-03T07:03:51.826Z,100324.20
2019-04-03T07:06:21.264Z,100323.21
2019-04-03T07:08:50.892Z,100322.36
2019-04-03T07:11:23.627Z,100327.84
2019-04-03T07:13:53.653Z,100337.07
2019-04-03T07:16:23.014Z,100334.91
2019-04-03T07:18:53.846Z,100338.80
2019-04-03T07:21:24.004Z,100336.00
2019-04-03T07:23:56.138Z,100335.52
2019-04-03T07:26:27.595Z,100340.01
2019-04-03T07:28:58.520Z,100337.95
2019-04-03T07:31:28.497Z,100335.66
2019-04-03T07:34:00.190Z,100346.25
2019-04-03T07:36:29.401Z,100343.58
2019-04-03T07:39:00.131Z,100348.46
2019-04-03T07:41:29.601Z,100351.63
2019-04-03T07:43:59.321Z,100352.09
2019-04-03T07:46:31.507Z,100351.37
2019-04-03T07:49:01.971Z,100354.78
2019-04-03T07:51:32.513Z,100360.00
2019-04-03T07:54:04.960Z,100363.30
2019-04-03T07:56:34.597Z,100364.76
2019-04-03T07:59:05.421Z,100360.61
2019-04-03T08:01:34.912Z,100364.75
2019-04-03T08:04:05.880Z,100368.77
2019-04-03T08:06:36.489Z,100374.38
2019-04-03T08:09:09.920Z,100367.81
2019-04-03T08:11:40.107Z,100365.27
2019-04-03T08:14:11.727Z,100363.07
2019-04-03T08:16:43.288Z,100366.70
2019-04-03T08:19:13.448Z,100365.73
2019-04-03T08:21:43.281Z,100364.27
2019-04-03T08:24:12.876Z,100367.55
2019-04-03T08:26:43.735Z,100364.14
2019-04-03T08:29:13.253Z,100364.62
2019-04-03T08:31:45.021Z,100371.30
2019-04-03T08:34:18.572Z,100369.25
2019-04-03T08:36:48.598Z,100371.70
2019-04-03T08:39:18.051Z,100368.16
2019-04-03T08:41:47.931Z,100372.16
2019-04-03T08:44:17.362Z,100370.22
2019-04-03T08:46:46.876Z,100373.00
2019-04-03T08:49:17.499Z,100374.80
2019-04-03T08:51:50.270Z,100367.13
2019-04-03T08:54:21.651Z,100365.89
2019-04-03T08:56:52.160Z,100365.08
2019-04-03T08:59:24.911Z,100370.02
2019-04-03T09:01:55.710Z,100370.05
2019-04-03T09:04:25.936Z,100364.03
2019-04-03T09:06:57.491Z,100362.05
2019-04-03T09:09:29.110Z,100364.80
2019-04-03T09:12:00.247Z,100364.66
2019-04-03T09:14:29.687Z,100367.83
2019-04-03T09:17:02.709Z,100373.59
2019-04-03T09:19:36.551Z,100374.58
2019-04-03T09:22:07.460Z,100376.69
2019-04-03T09:24:37.482Z,100379.16
2019-04-03T09:27:09.859Z,100383.23
2019-04-03T09:29:40.014Z,100382.23
2019-04-03T09:32:10.915Z,100388.63
2019-04-03T09:34:40.404Z,100393.39
2019-04-03T09:37:09.936Z,100395.08
2019-04-03T09:39:39.719Z,100394.20
2019-04-03T09:42:09.154Z,100391.02
2019-04-03T09:44:40.200Z,100389.52
2019-04-03T09:47:11.746Z,100391.56
2019-04-03T09:49:43.749Z,100393.33
2019-04-03T09:52:12.479Z,100392.05
2019-04-03T09:54:43.214Z,100392.32
2019-04-03T09:57:12.617Z,100390.59
2019-04-03T09:59:43.044Z,100388.05
2019-04-03T10:02:15.260Z,100391.03
2019-04-03T10:04:46.916Z,100391.84
2019-04-03T10:07:17.410Z,100390.59
2019-04-03T10:09:47.255Z,100381.81
2019-04-03T10:12:16.879Z,100383.02
2019-04-03T10:14:46.263Z,100382.44
2019-04-03T10:17:15.701Z,100382.82
2019-04-03T10:19:47.100Z,100382.34
2019-04-03T10:22:16.487Z,100378.45
2019-04-03T10:24:47.593Z,100379.48
2019-04-03T10:27:17.064Z,100381.20
2019-04-03T10:29:49.125Z,100372.63
2019-04-03T10:32:18.060Z,100368.47
2019-04-03T10:34:47.961Z,100370.10
2019-04-03T10:37:19.366Z,100365.20
2019-04-03T10:39:51.761Z,100365.95
2019-04-03T10:42:22.471Z,100369.00
2019-04-03T10:44:53.947Z,100364.41
2019-04-03T10:47:39.474Z,100360.41
2019-04-03T10:49:58.643Z,100352.25
2019-04-03T10:52:28.162Z,100358.86
2019-04-03T10:54:59.294Z,100358.07
2019-04-03T10:57:33.204Z,100364.67
2019-04-03T11:00:01.773Z,100366.79
2019-04-03T11:02:32.926Z,100360.62
2019-04-03T11:05:02.961Z,100360.51
2019-04-03T11:07:32.643Z,100363.80
2019-04-03T11:10:04.792Z,100368.47
2019-04-03T11:12:36.690Z,100366.42
2019-04-03T11:15:10.810Z,100358.84
2019-04-03T11:17:42.692Z,100353.68
2019-04-03T11:20:18.585Z,100347.95
2019-04-03T11:22:48.997Z,100336.30
2019-04-03T11:25:18.922Z,100333.52
2019-04-03T11:27:49.604Z,100329.71
2019-04-03T11:30:24.170Z,100321.46
2019-04-03T11:32:53.795Z,100326.27
2019-04-03T11:35:24.354Z,100317.20
2019-04-03T11:37:56.736Z,100325.02
2019-04-03T11:40:26.887Z,100321.77
2019-04-03T11:42:56.760Z,100321.16
2019-04-03T11:45:26.289Z,100319.41
2019-04-03T11:47:55.900Z,100318.05
2019-04-03T11:50:27.214Z,100312.02
2019-04-03T11:52:56.734Z,100310.46
2019-04-03T11:55:26.648Z,100302.72
2019-04-03T11:57:56.097Z,100308.13
2019-04-03T12:00:30.901Z,100306.49
2019-04-03T12:03:02.219Z,100307.75
2019-04-03T12:05:33.321Z,100309.23
2019-04-03T12:08:03.117Z,100303.75
2019-04-03T12:10:35.140Z,100303.73
2019-04-03T12:13:04.832Z,100302.91
2019-04-03T12:15:36.941Z,100305.34
2019-04-03T12:18:07.015Z,100300.78
2019-04-03T12:20:41.046Z,100313.17
2019-04-03T12:23:08.168Z,100303.73
2019-04-03T12:25:39.399Z,100292.94
2019-04-03T12:28:11.020Z,100298.98
2019-04-03T12:30:41.642Z,100296.80
2019-04-03T12:33:13.628Z,100298.25
2019-04-03T12:35:46.228Z,100303.08
2019-04-03T12:38:17.585Z,100298.11
2019-04-03T12:40:47.396Z,100304.00
2019-04-03T12:43:17.911Z,100302.84
2019-04-03T12:45:48.395Z,100294.84
2019-04-03T12:48:19.933Z,100293.59
2019-04-03T12:50:49.623Z,100284.14
2019-04-03T12:53:19.121Z,100282.21
2019-04-03T12:55:49.957Z,100270.92
2019-04-03T12:58:19.355Z,100272.77
2019-04-03T13:00:51.672Z,100269.69
2019-04-03T13:03:23.548Z,100266.67
2019-04-03T13:05:52.831Z,100268.50
2019-04-03T13:08:22.439Z,100260.83
2019-04-03T13:10:54.227Z,100260.47
2019-04-03T13:13:27.948Z,100258.25
2019-04-03T13:15:56.831Z,100258.58
2019-04-03T13:18:27.015Z,100250.83
2019-04-03T13:20:56.817Z,100251.27
2019-04-03T13:23:28.216Z,100247.91
2019-04-03T13:25:59.957Z,100248.30
2019-04-03T13:28:30.710Z,100245.75
2019-04-03T13:31:01.701Z,100241.08
2019-04-03T13:33:36.245Z,100236.53
2019-04-03T13:36:07.636Z,100232.38
2019-04-03T13:38:37.083Z,100231.52
2019-04-03T13:41:07.952Z,100233.49
2019-04-03T13:43:41.505Z,100235.39
2019-04-03T13:46:11.160Z,100231.11
2019-04-03T13:48:40.976Z,100230.56
2019-04-03T13:51:12.370Z,100232.02
2019-04-03T13:53:42.175Z,100227.97
2019-04-03T13:56:12.719Z,100222.45
2019-04-03T13:58:42.806Z,100225.50
2019-04-03T14:01:13.722Z,100221.13
2019-04-03T14:03:43.666Z,100211.54
2019-04-03T14:06:13.217Z,100215.62
2019-04-03T14:08:45.324Z,100205.67
2019-04-03T14:11:19.042Z,100204.67
2019-04-03T14:13:49.613Z,100198.83
2019-04-03T14:16:22.390Z,100200.17
2019-04-03T14:18:51.639Z,100194.35
2019-04-03T14:21:21.199Z,100198.27
2019-04-03T14:23:50.872Z,100198.90
2019-04-03T14:26:21.652Z,100193.86
2019-04-03T14:28:51.282Z,100190.00
2019-04-03T14:31:32.729Z,100179.05
2019-04-03T14:33:52.510Z,100178.75
2019-04-03T14:36:22.477Z,100180.21
2019-04-03T14:38:55.304Z,100174.42
2019-04-03T14:41:26.322Z,100175.46
2019-04-03T14:43:56.949Z,100177.77
2019-04-03T14:46:28.255Z,100175.24
2019-04-03T14:49:00.342Z,100174.84
2019-04-03T14:51:31.600Z,100174.60
2019-04-03T14:54:01.235Z,100172.05
2019-04-03T14:56:33.246Z,100176.83
2019-04-03T14:59:02.968Z,100178.14
2019-04-03T15:01:33.099Z,100191.30
2019-04-03T15:04:02.937Z,100191.03
2019-04-03T15:06:32.329Z,100199.56
2019-04-03T15:09:02.823Z,100188.22
2019-04-03T15:11:34.386Z,100189.02
2019-04-03T15:14:05.216Z,100195.05
2019-04-03T15:16:34.563Z,100188.99
2019-04-03T15:19:05.041Z,100183.98
2019-04-03T15:21:35.924Z,100173.38
2019-04-03T15:24:05.775Z,100170.91
2019-04-03T15:26:35.317Z,100166.75
2019-04-03T15:29:06.516Z,100154.07
2019-04-03T15:31:35.973Z,100152.02
2019-04-03T15:34:05.796Z,100150.98
2019-04-03T15:36:36.395Z,100134.69
2019-04-03T15:39:16.403Z,100134.27
2019-04-03T15:41:47.869Z,100132.13
2019-04-03T15:44:19.981Z,100131.31
2019-04-03T15:46:48.601Z,100128.02
2019-04-03T15:49:18.554Z,100134.77
2019-04-03T15:51:51.359Z,100128.16
2019-04-03T15:54:20.780Z,100131.75
2019-04-03T15:56:51.248Z,100127.97
2019-04-03T15:59:24.131Z,100127.16
2019-04-03T16:01:54.004Z,100128.20
2019-04-03T16:04:24.918Z,100114.41
2019-04-03T16:06:55.731Z,100110.39
2019-04-03T16:09:25.707Z,100092.47
2019-04-03T16:12:00.275Z,100092.03
2019-04-03T16:14:30.896Z,100082.45
2019-04-03T16:17:02.997Z,100096.30
2019-04-03T16:19:34.394Z,100089.88
2019-04-03T16:22:03.877Z,100093.09
2019-04-03T16:24:33.446Z,100087.91
2019-04-03T16:27:03.879Z,100092.13
2019-04-03T16:29:33.595Z,100083.94
2019-04-03T16:32:03.565Z,100084.50
2019-04-03T16:34:33.516Z,100093.77
2019-04-03T16:37:04.141Z,100095.85
2019-04-03T16:39:34.774Z,100087.45
2019-04-03T16:42:04.825Z,100087.00
2019-04-03T16:44:34.197Z,100088.44
2019-04-03T16:47:05.407Z,100090.16
2019-04-03T16:49:36.197Z,100092.08
2019-04-03T16:52:07.198Z,100095.25
2019-04-03T16:54:37.140Z,100093.83
2019-04-03T16:57:07.004Z,100085.34
2019-04-03T16:59:40.314Z,100091.42
2019-04-03T17:02:12.569Z,100091.53
2019-04-03T17:04:43.572Z,100100.49
2019-04-03T17:07:14.830Z,100093.89
2019-04-03T17:09:44.755Z,100095.23
2019-04-03T17:12:17.325Z,100092.25
2019-04-03T17:14:47.098Z,100090.95
2019-04-03T17:17:19.716Z,100094.73
2019-04-03T17:19:51.371Z,100086.41
2019-04-03T17:22:22.252Z,100087.00
2019-04-03T17:24:56.237Z,100085.91
2019-04-03T17:27:29.670Z,100090.78
2019-04-03T17:29:58.643Z,100097.52
2019-04-03T17:32:30.841Z,100098.98
2019-04-03T17:35:01.387Z,100101.64
2019-04-03T17:37:31.155Z,100093.45
2019-04-03T17:40:00.836Z,100091.87
2019-04-03T17:42:30.772Z,100100.74
2019-04-03T17:45:00.371Z,100104.18
2019-04-03T17:47:29.869Z,100102.98
2019-04-03T17:50:00.671Z,100113.70
2019-04-03T17:52:30.350Z,100113.97
2019-04-03T17:55:01.039Z,100121.28
2019-04-03T17:57:32.639Z,100128.84
2019-04-03T18:00:03.450Z,100127.42
2019-04-03T18:02:33.029Z,100129.27
2019-04-03T18:05:06.362Z,100124.47
2019-04-03T18:07:37.174Z,100117.78
2019-04-03T18:10:09.179Z,100127.20
2019-04-03T18:12:40.114Z,100131.70
2019-04-03T18:15:10.171Z,100132.45
2019-04-03T18:17:39.745Z,100133.92
2019-04-03T18:20:13.268Z,100137.48
2019-04-03T18:22:44.910Z,100134.94
2019-04-03T18:25:15.654Z,100135.55
2019-04-03T18:27:45.556Z,100132.88
2019-04-03T18:30:16.916Z,100130.30
2019-04-03T18:32:48.368Z,100125.45
2019-04-03T18:35:19.758Z,100115.22
2019-04-03T18:37:51.066Z,100105.04
2019-04-03T18:40:20.639Z,100106.78
2019-04-03T18:42:52.177Z,100110.43
2019-04-03T18:45:25.537Z,100111.94
2019-04-03T18:47:54.866Z,100116.08
2019-04-03T18:50:24.467Z,100122.05
2019-04-03T18:52:53.974Z,100125.20
2019-04-03T18:55:23.359Z,100119.73
2019-04-03T18:57:53.067Z,100125.34
2019-04-03T19:00:22.625Z,100124.89
2019-04-03T19:02:51.994Z,100120.02
2019-04-03T19:05:21.503Z,100113.92
2019-04-03T19:07:50.923Z,100112.72
2019-04-03T19:10:23.028Z,100113.69
2019-04-03T19:12:51.515Z,100118.34
2019-04-03T19:15:21.240Z,100119.78
2019-04-03T19:17:59.876Z,100118.83
2019-04-03T19:20:21.889Z,100114.20
2019-04-03T19:23:01.893Z,100112.61
2019-04-03T19:25:22.444Z,100105.80
2019-04-03T19:27:52.339Z,100107.66
2019-04-03T19:30:21.961Z,100105.56
2019-04-03T19:32:51.362Z,100098.62
2019-04-03T19:35:21.176Z,100098.62
2019-04-03T19:37:50.549Z,100086.23
2019-04-03T19:40:19.983Z,100076.23
2019-04-03T19:42:49.653Z,100077.96
2019-04-03T19:45:21.328Z,100065.92
2019-04-03T19:47:50.229Z,100045.88
2019-04-03T19:50:19.664Z,100035.07
2019-04-03T19:52:49.111Z,100039.95
2019-04-03T19:55:19.479Z,100034.83
2019-04-03T19:57:49.991Z,100027.66
2019-04-03T20:00:20.716Z,100026.21
2019-04-03T20:02:50.123Z,100034.96
2019-04-03T20:05:19.690Z,100037.89
2019-04-03T20:07:49.156Z,100044.31
2019-04-03T20:10:18.575Z,100044.45
2019-04-03T20:12:48.107Z,100034.62
2019-04-03T20:15:17.528Z,100043.58
2019-04-03T20:17:47.217Z,100034.48
2019-04-03T20:20:16.986Z,100024.39
2019-04-03T20:22:46.647Z,100024.78
2019-04-03T20:25:16.669Z,100015.05
2019-04-03T20:27:47.380Z,100013.22
2019-04-03T20:30:17.968Z,100003.27
2019-04-03T20:32:47.400Z,99995.98
2019-04-03T20:35:18.718Z,99991.85
2019-04-03T20:37:49.296Z,99990.12
2019-04-03T20:40:18.706Z,99986.51
2019-04-03T20:42:48.437Z,99987.47
2019-04-03T20:45:19.753Z,99984.58
2019-04-03T20:47:49.266Z,99981.90
2019-04-03T20:50:18.785Z,99969.50
2019-04-03T20:52:48.227Z,99967.81
2019-04-03T20:55:17.662Z,99962.59
2019-04-03T20:57:55.316Z,99959.28
2019-04-03T21:00:19.786Z,99966.20
2019-04-03T21:02:49.257Z,99978.83
2019-04-03T21:05:18.962Z,99978.69
2019-04-03T21:07:48.408Z,99960.27
2019-04-03T21:10:17.848Z,99962.21
2019-04-03T21:12:48.273Z,99968.75
2019-04-03T21:15:17.777Z,99983.22
2019-04-03T21:17:49.728Z,99961.13
2019-04-03T21:20:18.818Z,99951.41
2019-04-03T21:22:49.777Z,99965.02
2019-04-03T21:25:20.440Z,99962.95
2019-04-03T21:27:49.907Z,99963.42
2019-04-03T21:30:19.304Z,99957.14
2019-04-03T21:32:48.741Z,99954.69
2019-04-03T21:35:18.320Z,99966.10
2019-04-03T21:37:47.708Z,99942.33
2019-04-03T21:40:17.419Z,99935.78
2019-04-03T21:42:47.372Z,99917.56
2019-04-03T21:45:17.001Z,99939.27
2019-04-03T21:47:47.031Z,99943.53
2019-04-03T21:50:19.188Z,99942.20
2019-04-03T21:52:48.364Z,99919.02
2019-04-03T21:55:18.731Z,99917.56
2019-04-03T21:57:48.524Z,99921.09
2019-04-03T22:00:36.660Z,99928.59
2019-04-03T22:03:08.116Z,99914.89
2019-04-03T22:05:39.301Z,99910.41
2019-04-03T22:08:12.346Z,99904.34
2019-04-03T22:10:41.930Z,99891.12
2019-04-03T22:13:14.852Z,99895.47
2019-04-03T22:15:45.566Z,99900.21
2019-04-03T22:18:15.677Z,99886.39
2019-04-03T22:20:45.101Z,99873.77
2019-04-03T22:23:15.537Z,99873.04
2019-04-03T22:25:45.263Z,99861.76
2019-04-03T22:28:14.780Z,99859.19
2019-04-03T22:30:44.254Z,99852.77
2019-04-03T22:33:13.793Z,99858.10
2019-04-03T22:35:44.863Z,99857.23
2019-04-03T22:38:14.325Z,99867.22
2019-04-03T22:40:45.718Z,99861.36
2019-04-03T22:43:15.482Z,99843.27
2019-04-03T22:45:50.470Z,99840.50
2019-04-03T22:48:18.686Z,99826.75
2019-04-03T22:50:48.097Z,99826.13
2019-04-03T22:53:17.496Z,99819.81
2019-04-03T22:55:47.331Z,99811.68
2019-04-03T22:58:17.051Z,99804.41
2019-04-03T23:00:47.097Z,99798.33
2019-04-03T23:03:17.230Z,99794.42
2019-04-03T23:05:48.044Z,99787.66
2019-04-03T23:08:18.062Z,99784.38
2019-04-03T23:10:47.672Z,99783.98
2019-04-03T23:13:17.528Z,99783.73
2019-04-03T23:15:47.135Z,99785.06
2019-04-03T23:18:17.520Z,99777.19
2019-04-03T23:20:47.199Z,99774.28
2019-04-03T23:23:17.243Z,99769.17
2019-04-03T23:25:47.486Z,99783.90
2019-04-03T23:28:17.175Z,99785.25
2019-04-03T23:30:47.368Z,99775.77
2019-04-03T23:33:17.647Z,99800.64
2019-04-03T23:35:47.206Z,99847.86
2019-04-03T23:38:17.318Z,99918.05
2019-04-03T23:40:47.432Z,99909.81
2019-04-03T23:43:17.174Z,99941.13
2019-04-03T23:45:47.171Z,100001.67
2019-04-03T23:48:18.268Z,99980.06
2019-04-03T23:50:48.266Z,99949.00
2019-04-03T23:53:17.723Z,99972.31
2019-04-03T23:55:47.325Z,99996.47
2019-04-03T23:58:17.193Z,99964.68
